Terminal Aerodrome Forecast
Issued by NWS Rapid City, SD

Home | Current Version | Previous Version | Text Only | Print | Product List | Glossary Off
Versions: 1 2 3 4 5 6 7 8 9 10 11 12 13 14 15 16 17 18 19

000
FTUS43 KUNR 161100
TAFRAP
TAF
KRAP 161120Z 1612/1712 34026G36KT P6SM VCSH BKN035 OVC100
      TEMPO 1612/1615 P6SM -SHRA BKN025 OVC050
     FM161800 35025G35KT P6SM SCT040
     FM170000 35010KT P6SM SCT080=

USA.gov is the U.S. government's official web portal to all federal, state and local government web resources and services.